Time;durP1;ratioP1;P1;durP2;ratioP2;P2;SDS_P1;SDS_P2;PMS_P1;PMS_P2;Temp;Humidity;BMP_temperature;BMP_pressure;BME280_temperature;BME280_humidity;BME280_pressure;Samples;Min_cycle;Max_cycle;Signal;HPM_P1;HPM_P2
2021/09/03 00:02:03;;;;;;;7.25;4.57;;;15.00;99.90;;;;;;4986119;28;20026;-86
2021/09/03 00:04:28;;;;;;;7.68;4.47;;;14.90;99.90;;;;;;4986566;28;20030;-85
2021/09/03 00:06:54;;;;;;;9.98;4.55;;;14.90;99.90;;;;;;5011224;28;20067;-85
2021/09/03 00:09:19;;;;;;;9.20;4.93;;;14.80;99.90;;;;;;5008506;28;20057;-85
2021/09/03 00:11:45;;;;;;;9.27;4.65;;;14.80;99.90;;;;;;5007761;28;20038;-86
2021/09/03 00:14:11;;;;;;;10.20;4.68;;;14.80;99.90;;;;;;5007375;28;20035;-86
2021/09/03 00:16:37;;;;;;;8.65;4.22;;;14.80;99.90;;;;;;5006717;28;20034;-86
2021/09/03 00:19:04;;;;;;;9.52;4.38;;;14.70;99.90;;;;;;5006319;28;20632;-86
2021/09/03 00:21:30;;;;;;;8.68;5.13;;;14.80;99.90;;;;;;4989854;28;20039;-85
2021/09/03 00:23:56;;;;;;;9.57;5.05;;;14.70;99.90;;;;;;4991953;28;20054;-85
2021/09/03 00:26:21;;;;;;;12.65;5.10;;;14.80;99.90;;;;;;5025676;28;20038;-86
2021/09/03 00:28:47;;;;;;;9.18;4.20;;;14.60;99.90;;;;;;5027199;28;20026;-85
2021/09/03 00:31:12;;;;;;;8.18;4.75;;;14.50;99.90;;;;;;5048398;22;20046;-80
2021/09/03 00:33:38;;;;;;;8.23;4.18;;;14.60;99.90;;;;;;5051585;28;20029;-83
2021/09/03 00:36:04;;;;;;;7.93;4.22;;;14.60;99.90;;;;;;5031603;28;20025;-83
2021/09/03 00:38:29;;;;;;;10.38;5.05;;;14.50;99.90;;;;;;5014998;28;20470;-83
2021/09/03 00:40:56;;;;;;;8.15;4.72;;;14.50;99.90;;;;;;5007467;28;20050;-82
2021/09/03 00:43:21;;;;;;;7.40;4.25;;;14.50;99.90;;;;;;5015034;28;20056;-83
2021/09/03 00:45:47;;;;;;;8.18;4.45;;;14.50;99.90;;;;;;5002493;28;20046;-82
2021/09/03 00:48:13;;;;;;;9.10;4.70;;;14.50;99.90;;;;;;5015528;28;20469;-82
2021/09/03 00:50:39;;;;;;;8.90;4.30;;;14.50;99.90;;;;;;5019283;28;20038;-83
2021/09/03 00:53:05;;;;;;;9.27;4.63;;;14.40;99.90;;;;;;5038338;28;20068;-83
2021/09/03 00:55:31;;;;;;;8.50;5.07;;;14.40;99.90;;;;;;5036904;28;20025;-83
2021/09/03 00:57:57;;;;;;;7.97;4.40;;;14.40;99.90;;;;;;5038163;28;20030;-82
2021/09/03 01:00:23;;;;;;;8.80;5.20;;;14.40;99.90;;;;;;5038980;28;20037;-81
2021/09/03 01:02:48;;;;;;;9.77;5.13;;;14.40;99.90;;;;;;5036448;28;20370;-82
2021/09/03 01:05:14;;;;;;;9.30;4.60;;;14.40;99.90;;;;;;5038106;28;20026;-83
2021/09/03 01:07:40;;;;;;;8.07;4.57;;;14.30;99.90;;;;;;5038201;28;20168;-83
2021/09/03 01:10:06;;;;;;;8.75;5.13;;;14.30;99.90;;;;;;5038395;28;20064;-83
2021/09/03 01:12:31;;;;;;;8.77;4.70;;;14.30;99.90;;;;;;5021556;28;20437;-81
2021/09/03 01:14:57;;;;;;;8.38;4.85;;;14.30;99.90;;;;;;5028077;28;20074;-81
2021/09/03 01:17:22;;;;;;;8.48;4.82;;;14.30;99.90;;;;;;5026147;28;20037;-80
2021/09/03 01:19:51;;;;;;;7.75;4.65;;;14.20;99.90;;;;;;5033804;28;20406;-81
2021/09/03 01:22:22;;;;;;;7.80;4.35;;;14.10;99.90;;;;;;5016929;28;20038;-80
2021/09/03 01:24:48;;;;;;;10.25;4.60;;;14.10;99.90;;;;;;5016712;28;20355;-80
2021/09/03 01:27:13;;;;;;;9.00;4.90;;;14.20;99.90;;;;;;5024111;28;20029;-81
2021/09/03 01:29:39;;;;;;;7.90;4.55;;;14.10;99.90;;;;;;5018348;28;20029;-80
2021/09/03 01:32:05;;;;;;;7.38;4.38;;;14.10;99.90;;;;;;5025958;28;20033;-80
2021/09/03 01:34:30;;;;;;;8.93;4.85;;;14.10;99.90;;;;;;5030194;28;20036;-82
2021/09/03 01:36:56;;;;;;;8.60;4.78;;;14.10;99.90;;;;;;5016728;28;20026;-81
2021/09/03 01:39:21;;;;;;;9.57;5.03;;;14.00;99.90;;;;;;5016096;28;20036;-81
2021/09/03 01:41:47;;;;;;;9.45;5.40;;;13.90;99.90;;;;;;5033291;28;20041;-81
2021/09/03 01:44:13;;;;;;;9.80;4.88;;;14.00;99.90;;;;;;5033183;28;20607;-82
2021/09/03 01:46:38;;;;;;;9.80;4.88;;;14.00;99.90;;;;;;5033672;28;20025;-83
2021/09/03 01:49:04;;;;;;;9.32;5.22;;;14.00;99.90;;;;;;5034234;28;20113;-80
2021/09/03 01:51:29;;;;;;;8.68;4.60;;;13.90;99.90;;;;;;5015791;28;20032;-80
2021/09/03 01:53:55;;;;;;;10.07;4.78;;;14.00;99.90;;;;;;5015682;28;20028;-82
2021/09/03 01:56:21;;;;;;;8.65;5.25;;;14.00;99.90;;;;;;5014239;28;20093;-81
2021/09/03 01:58:47;;;;;;;9.32;4.82;;;14.00;99.90;;;;;;5005450;28;20030;-81
2021/09/03 02:01:12;;;;;;;8.85;5.13;;;13.90;99.90;;;;;;5014361;28;20363;-81
2021/09/03 02:03:38;;;;;;;8.60;5.10;;;14.00;99.90;;;;;;5015237;28;20109;-82
2021/09/03 02:06:03;;;;;;;8.93;5.53;;;13.90;99.90;;;;;;5033174;28;20100;-82
2021/09/03 02:08:30;;;;;;;8.25;4.82;;;13.90;99.90;;;;;;5012474;28;20034;-82
2021/09/03 02:10:56;;;;;;;9.15;4.60;;;13.90;99.90;;;;;;4997028;28;20378;-81
2021/09/03 02:13:22;;;;;;;9.23;5.50;;;13.90;99.90;;;;;;5013227;28;20030;-82
2021/09/03 02:15:49;;;;;;;10.35;5.03;;;13.90;99.90;;;;;;4996865;28;20037;-82
2021/09/03 02:18:15;;;;;;;10.15;5.68;;;13.80;99.90;;;;;;5014453;28;20038;-81
2021/09/03 02:20:41;;;;;;;8.23;5.03;;;13.70;99.90;;;;;;5013126;28;20037;-81
2021/09/03 02:23:06;;;;;;;9.13;5.53;;;13.80;99.90;;;;;;4996336;28;20120;-80
2021/09/03 02:25:32;;;;;;;8.73;5.07;;;13.80;99.90;;;;;;5013165;28;20096;-82
2021/09/03 02:27:58;;;;;;;11.15;5.90;;;13.80;99.90;;;;;;5012376;28;20033;-82
2021/09/03 02:30:23;;;;;;;11.13;5.95;;;13.80;99.90;;;;;;5013908;28;20113;-82
2021/09/03 02:32:49;;;;;;;11.38;5.90;;;13.80;99.90;;;;;;5014928;28;20041;-81
2021/09/03 02:35:15;;;;;;;12.25;5.88;;;13.70;99.90;;;;;;5033883;28;20041;-82
2021/09/03 02:37:40;;;;;;;9.57;5.30;;;13.80;99.90;;;;;;5033361;28;20644;-81
2021/09/03 02:40:06;;;;;;;9.68;5.90;;;13.80;99.90;;;;;;5024906;28;20083;-83
2021/09/03 02:42:32;;;;;;;8.35;5.03;;;13.80;99.90;;;;;;5032965;28;20045;-83
2021/09/03 02:44:58;;;;;;;9.18;5.47;;;13.80;99.90;;;;;;5033265;28;20037;-82
2021/09/03 02:47:23;;;;;;;9.38;5.45;;;13.80;99.90;;;;;;5033731;28;20087;-82
2021/09/03 02:49:49;;;;;;;9.82;4.95;;;13.80;99.90;;;;;;5023804;28;20389;-82
2021/09/03 02:52:14;;;;;;;10.57;5.32;;;13.80;99.90;;;;;;5013161;28;20037;-81
2021/09/03 02:54:40;;;;;;;11.00;5.30;;;13.80;99.90;;;;;;5013112;28;20109;-83
2021/09/03 02:57:06;;;;;;;11.45;5.70;;;13.90;99.90;;;;;;4996207;28;20030;-83
2021/09/03 02:59:31;;;;;;;9.85;5.20;;;13.90;99.90;;;;;;5022206;28;20072;-81
2021/09/03 03:01:57;;;;;;;9.45;5.53;;;13.90;99.90;;;;;;4996797;28;20033;-83
2021/09/03 03:04:22;;;;;;;12.55;5.43;;;14.00;99.90;;;;;;5013967;28;20054;-82
2021/09/03 03:06:48;;;;;;;9.52;5.43;;;13.90;99.90;;;;;;4996449;28;20032;-82
2021/09/03 03:09:14;;;;;;;12.38;6.30;;;13.90;99.90;;;;;;5012658;28;20034;-81
2021/09/03 03:11:39;;;;;;;11.30;5.38;;;13.90;99.90;;;;;;4995824;28;20026;-82
2021/09/03 03:14:11;;;;;;;10.73;5.60;;;13.90;99.90;;;;;;5011736;28;20478;-83
2021/09/03 03:16:37;;;;;;;10.13;5.50;;;13.90;99.90;;;;;;5012650;28;20383;-80
2021/09/03 03:19:03;;;;;;;9.10;5.03;;;13.90;99.90;;;;;;5014773;28;20025;-81
2021/09/03 03:21:28;;;;;;;9.85;5.78;;;13.90;99.90;;;;;;5011400;28;20155;-80
2021/09/03 03:23:54;;;;;;;10.27;5.93;;;13.90;99.90;;;;;;5015267;28;20036;-82
2021/09/03 03:26:19;;;;;;;9.05;5.47;;;13.80;99.90;;;;;;5032158;28;20104;-83
2021/09/03 03:28:45;;;;;;;12.35;5.47;;;13.90;99.90;;;;;;5017180;28;20030;-82
2021/09/03 03:31:10;;;;;;;9.10;5.13;;;13.80;99.90;;;;;;5012247;28;20109;-81
2021/09/03 03:33:36;;;;;;;12.75;5.82;;;13.80;99.90;;;;;;5012060;28;20033;-84
2021/09/03 03:36:02;;;;;;;10.15;5.55;;;13.80;99.90;;;;;;5012789;28;20105;-82
2021/09/03 03:38:27;;;;;;;9.60;5.75;;;13.70;99.90;;;;;;5028436;28;20045;-82
2021/09/03 03:40:53;;;;;;;10.15;5.65;;;13.70;99.90;;;;;;5017065;28;20029;-82
2021/09/03 03:43:18;;;;;;;10.30;6.10;;;13.70;99.90;;;;;;5032325;28;20036;-81
2021/09/03 03:45:44;;;;;;;10.05;5.07;;;13.60;99.90;;;;;;5005234;28;20038;-82
2021/09/03 03:48:09;;;;;;;9.23;5.30;;;13.60;99.90;;;;;;5012272;28;20061;-81
2021/09/03 03:50:35;;;;;;;11.85;6.20;;;13.50;99.90;;;;;;5012714;28;20076;-80
2021/09/03 03:53:00;;;;;;;10.13;6.20;;;13.60;99.90;;;;;;5012250;28;20109;-81
2021/09/03 03:55:26;;;;;;;9.68;6.03;;;13.50;99.90;;;;;;5029279;28;20397;-82
2021/09/03 03:57:52;;;;;;;9.85;6.38;;;13.50;99.90;;;;;;5031515;28;20032;-81
2021/09/03 04:00:17;;;;;;;8.95;5.55;;;13.50;99.90;;;;;;5031972;28;20022;-82
2021/09/03 04:02:43;;;;;;;11.23;6.47;;;13.50;99.90;;;;;;5035700;28;20035;-82
2021/09/03 04:05:09;;;;;;;13.80;5.85;;;13.50;99.90;;;;;;5038439;28;20100;-83
2021/09/03 04:07:34;;;;;;;9.38;5.97;;;13.50;99.90;;;;;;5038951;28;20029;-83
2021/09/03 04:10:00;;;;;;;10.10;6.03;;;13.50;99.90;;;;;;5040542;28;20030;-82
2021/09/03 04:12:25;;;;;;;9.80;5.50;;;13.50;99.90;;;;;;5032949;28;20473;-81
2021/09/03 04:14:51;;;;;;;9.82;5.85;;;13.50;99.90;;;;;;5033437;28;20029;-82
2021/09/03 04:17:17;;;;;;;10.50;6.03;;;13.50;99.90;;;;;;5032136;28;20045;-82
2021/09/03 04:19:42;;;;;;;11.27;5.57;;;13.50;99.90;;;;;;5012949;28;20030;-82
2021/09/03 04:22:08;;;;;;;10.80;6.13;;;13.50;99.90;;;;;;4995107;28;20136;-80
2021/09/03 04:24:33;;;;;;;12.95;6.40;;;13.50;99.90;;;;;;5004433;28;20033;-81
2021/09/03 04:26:59;;;;;;;11.77;6.07;;;13.50;99.90;;;;;;5031352;28;20033;-83
2021/09/03 04:29:26;;;;;;;13.40;5.53;;;13.40;99.90;;;;;;4998807;28;20021;-83
2021/09/03 04:31:51;;;;;;;9.43;5.93;;;13.50;99.90;;;;;;5016445;28;20037;-82
2021/09/03 04:34:17;;;;;;;10.35;6.00;;;13.50;99.90;;;;;;5015463;28;20037;-82
2021/09/03 04:36:43;;;;;;;9.68;5.32;;;13.50;99.90;;;;;;5022058;28;20148;-82
2021/09/03 04:39:08;;;;;;;10.25;5.20;;;13.40;99.90;;;;;;5036572;28;20037;-83
2021/09/03 04:41:34;;;;;;;11.50;5.60;;;13.40;99.90;;;;;;5038559;28;20462;-82
2021/09/03 04:44:00;;;;;;;13.85;6.50;;;13.40;99.90;;;;;;5038726;28;20030;-83
2021/09/03 04:46:25;;;;;;;9.82;5.50;;;13.40;99.90;;;;;;5011408;28;20088;-83
2021/09/03 04:48:51;;;;;;;10.00;5.82;;;13.30;99.90;;;;;;5018035;28;20029;-83
2021/09/03 04:51:16;;;;;;;9.55;5.57;;;13.20;99.90;;;;;;4999969;28;20062;-82
2021/09/03 04:53:42;;;;;;;13.88;6.10;;;13.20;99.90;;;;;;5000539;28;20426;-83
2021/09/03 04:56:07;;;;;;;11.32;5.95;;;13.30;99.90;;;;;;5000631;28;20018;-83
2021/09/03 04:58:33;;;;;;;11.45;6.25;;;13.20;99.90;;;;;;5016029;28;20026;-82
2021/09/03 05:00:59;;;;;;;12.82;6.60;;;13.20;99.90;;;;;;5000160;28;20178;-82
2021/09/03 05:03:24;;;;;;;12.38;6.25;;;13.20;99.90;;;;;;5017902;28;20127;-83
2021/09/03 05:05:50;;;;;;;10.23;5.60;;;13.20;99.90;;;;;;5008754;28;20029;-83
2021/09/03 05:08:16;;;;;;;9.40;5.97;;;13.20;99.90;;;;;;5036296;28;20033;-83
2021/09/03 05:10:41;;;;;;;11.95;5.85;;;13.20;99.90;;;;;;5035698;28;20022;-81
2021/09/03 05:13:07;;;;;;;11.10;6.00;;;13.20;99.90;;;;;;5035795;28;20017;-81
2021/09/03 05:15:39;;;;;;;11.93;6.43;;;13.20;99.90;;;;;;5018909;28;20029;-83
2021/09/03 05:18:04;;;;;;;;;;;13.20;99.90;;;;;;5036463;28;20018;-82
2021/09/03 05:20:30;;;;;;;12.10;6.43;;;13.20;99.90;;;;;;5036454;28;19937;-83
2021/09/03 05:22:56;;;;;;;11.57;6.38;;;13.20;99.90;;;;;;5035782;28;20025;-83
2021/09/03 05:25:23;;;;;;;10.52;6.53;;;13.20;99.90;;;;;;5023457;28;20033;-83
2021/09/03 05:27:49;;;;;;;9.90;6.32;;;13.30;99.90;;;;;;5034910;28;20029;-83
2021/09/03 05:30:15;;;;;;;13.45;6.78;;;13.30;99.90;;;;;;5030494;28;20033;-83
2021/09/03 05:32:40;;;;;;;12.13;6.45;;;13.40;99.90;;;;;;5014589;28;20030;-83
2021/09/03 05:35:07;;;;;;;11.27;6.28;;;13.40;99.90;;;;;;5016236;28;20026;-82
2021/09/03 05:37:33;;;;;;;12.25;5.97;;;13.50;99.90;;;;;;5015560;28;20524;-82
2021/09/03 05:40:00;;;;;;;12.07;6.70;;;13.50;99.90;;;;;;5004158;28;20026;-84
2021/09/03 05:42:26;;;;;;;13.13;6.40;;;13.60;99.90;;;;;;5016319;28;20447;-81
2021/09/03 05:44:52;;;;;;;12.50;6.63;;;13.70;99.90;;;;;;5017181;28;20100;-82
2021/09/03 05:47:17;;;;;;;13.00;7.22;;;13.60;99.90;;;;;;5003186;28;20057;-83
2021/09/03 05:49:43;;;;;;;11.27;7.15;;;13.70;99.90;;;;;;4997571;28;20029;-83
2021/09/03 05:52:09;;;;;;;11.52;6.40;;;13.80;99.90;;;;;;5014616;28;20513;-81
2021/09/03 05:54:34;;;;;;;13.73;6.88;;;13.90;99.90;;;;;;5016457;28;20026;-82
2021/09/03 05:57:00;;;;;;;12.80;7.43;;;13.90;99.90;;;;;;5029871;28;20029;-83
2021/09/03 05:59:25;;;;;;;12.93;7.45;;;14.00;99.90;;;;;;5034291;28;20021;-83
2021/09/03 06:01:51;;;;;;;14.13;7.43;;;14.10;99.90;;;;;;5036532;28;20036;-82
2021/09/03 06:04:16;;;;;;;14.80;8.38;;;14.20;99.90;;;;;;5036002;28;20083;-81
2021/09/03 06:06:42;;;;;;;14.18;7.45;;;14.30;99.90;;;;;;5033078;28;20073;-83
2021/09/03 06:09:07;;;;;;;13.52;7.13;;;14.30;99.90;;;;;;5033939;28;20038;-82
2021/09/03 06:11:33;;;;;;;13.93;8.02;;;14.40;99.90;;;;;;5036370;28;20033;-83
2021/09/03 06:13:59;;;;;;;12.57;7.88;;;14.50;99.90;;;;;;5035924;28;20112;-82
2021/09/03 06:16:24;;;;;;;13.40;7.55;;;14.50;99.90;;;;;;5035258;28;20030;-83
2021/09/03 06:18:50;;;;;;;12.20;7.47;;;14.70;99.90;;;;;;5036077;28;20112;-83
2021/09/03 06:21:17;;;;;;;13.45;8.07;;;14.70;99.90;;;;;;5035044;28;20060;-83
2021/09/03 06:23:42;;;;;;;13.85;7.40;;;14.70;99.90;;;;;;5035956;28;20044;-83
2021/09/03 06:26:08;;;;;;;11.30;7.15;;;14.70;99.90;;;;;;5036530;28;20029;-83
2021/09/03 06:28:34;;;;;;;16.77;7.00;;;14.70;99.90;;;;;;5035730;28;20040;-83
2021/09/03 06:30:59;;;;;;;9.80;6.22;;;14.60;99.90;;;;;;5036216;28;20497;-83
2021/09/03 06:33:25;;;;;;;12.57;6.45;;;14.70;99.90;;;;;;5046440;22;20060;-87
2021/09/03 06:35:52;;;;;;;10.32;6.32;;;14.70;99.90;;;;;;5024472;28;20078;-89
2021/09/03 06:38:17;;;;;;;11.20;6.97;;;14.70;99.90;;;;;;5014464;28;20029;-87
2021/09/03 06:40:43;;;;;;;11.45;5.72;;;14.70;99.90;;;;;;5025336;28;20022;-87
2021/09/03 06:43:08;;;;;;;11.43;6.07;;;14.80;99.90;;;;;;4995836;28;20042;-88
2021/09/03 06:45:34;;;;;;;12.52;6.80;;;14.80;99.90;;;;;;5012977;28;20042;-87
2021/09/03 06:48:00;;;;;;;10.00;6.25;;;14.90;99.90;;;;;;4986911;28;20062;-87
2021/09/03 06:50:25;;;;;;;10.80;6.53;;;14.90;99.90;;;;;;4988310;28;20120;-87
2021/09/03 06:52:51;;;;;;;11.40;6.75;;;15.00;99.90;;;;;;5006062;28;20077;-88
2021/09/03 06:55:17;;;;;;;12.55;6.25;;;15.10;99.90;;;;;;5005612;28;20053;-88
2021/09/03 06:57:42;;;;;;;11.15;6.78;;;15.10;99.90;;;;;;4995385;28;20027;-87
2021/09/03 07:00:09;;;;;;;10.70;6.38;;;15.30;99.90;;;;;;5003071;28;20601;-88
2021/09/03 07:02:35;;;;;;;12.63;5.90;;;15.30;99.90;;;;;;4987688;28;20062;-87
2021/09/03 07:05:01;;;;;;;10.98;6.43;;;15.30;99.90;;;;;;5002075;28;20029;-87
2021/09/03 07:07:28;;;;;;;12.90;6.47;;;15.50;99.90;;;;;;4986130;28;20397;-88
2021/09/03 07:09:55;;;;;;;11.10;5.97;;;15.50;99.90;;;;;;4987925;28;20051;-87
2021/09/03 07:12:21;;;;;;;10.57;6.05;;;15.60;99.90;;;;;;4991632;28;20111;-87
2021/09/03 07:14:47;;;;;;;12.27;6.78;;;15.90;99.90;;;;;;4987650;28;20093;-87
2021/09/03 07:17:13;;;;;;;11.07;6.30;;;16.00;99.90;;;;;;4998348;28;20766;-87
2021/09/03 07:19:38;;;;;;;11.88;6.55;;;15.90;99.90;;;;;;5007136;28;20076;-88
2021/09/03 07:22:05;;;;;;;10.30;6.03;;;16.00;99.90;;;;;;5002708;28;20388;-87
2021/09/03 07:24:31;;;;;;;9.77;6.13;;;16.20;99.90;;;;;;5003719;28;20037;-87
2021/09/03 07:26:58;;;;;;;8.93;6.00;;;16.30;99.90;;;;;;4997445;28;20475;-87
2021/09/03 07:29:24;;;;;;;11.57;6.38;;;16.40;99.90;;;;;;5006264;28;20026;-86
2021/09/03 07:31:49;;;;;;;10.13;6.03;;;16.50;99.90;;;;;;5005687;28;20030;-87
2021/09/03 07:34:15;;;;;;;11.07;6.13;;;16.70;99.90;;;;;;5006047;28;20176;-86
2021/09/03 07:36:40;;;;;;;10.68;6.05;;;16.80;99.90;;;;;;5006528;28;20123;-88
2021/09/03 07:39:06;;;;;;;9.40;5.60;;;16.70;99.90;;;;;;5006930;28;20070;-88
2021/09/03 07:41:32;;;;;;;9.68;5.93;;;16.70;99.90;;;;;;5004105;28;20031;-87
2021/09/03 07:43:58;;;;;;;13.55;6.35;;;16.70;99.90;;;;;;4992143;28;20318;-87
2021/09/03 07:46:24;;;;;;;11.55;6.47;;;16.40;99.90;;;;;;4991949;28;20042;-87
2021/09/03 07:48:50;;;;;;;10.40;6.72;;;16.40;99.90;;;;;;4977852;28;20053;-87
2021/09/03 07:51:16;;;;;;;11.13;6.45;;;16.50;99.90;;;;;;5010229;28;20038;-87
2021/09/03 07:53:42;;;;;;;11.73;6.55;;;16.60;99.90;;;;;;5011469;28;20041;-88
2021/09/03 07:56:08;;;;;;;11.70;6.70;;;16.90;99.90;;;;;;5010759;28;20057;-87
2021/09/03 07:58:33;;;;;;;11.35;6.15;;;17.00;99.90;;;;;;4999724;28;20051;-88
2021/09/03 08:01:00;;;;;;;10.90;6.13;;;17.20;99.90;;;;;;4990024;28;20042;-87
2021/09/03 08:03:26;;;;;;;13.63;5.70;;;17.30;99.90;;;;;;4972006;28;20026;-88
2021/09/03 08:05:52;;;;;;;10.07;5.38;;;17.50;99.90;;;;;;4986728;28;20026;-87
2021/09/03 08:08:17;;;;;;;10.50;6.35;;;17.60;99.90;;;;;;4993478;28;20055;-88
2021/09/03 08:10:43;;;;;;;10.57;6.28;;;17.50;99.90;;;;;;4989462;28;20122;-88
2021/09/03 08:13:09;;;;;;;10.73;6.00;;;17.60;99.90;;;;;;5005239;28;20034;-88
2021/09/03 08:15:36;;;;;;;11.00;5.75;;;17.80;99.90;;;;;;5004783;28;20019;-88
2021/09/03 08:18:02;;;;;;;11.02;5.90;;;17.90;99.90;;;;;;4985351;28;20022;-87
2021/09/03 08:20:29;;;;;;;10.43;6.03;;;18.00;99.90;;;;;;4987855;28;20027;-87
2021/09/03 08:22:54;;;;;;;11.35;6.60;;;18.10;99.90;;;;;;4985684;28;20030;-87
2021/09/03 08:25:21;;;;;;;12.25;6.05;;;18.10;99.90;;;;;;5000977;28;20062;-87
2021/09/03 08:27:49;;;;;;;12.50;6.65;;;18.20;99.90;;;;;;5005804;28;20030;-87
2021/09/03 08:30:16;;;;;;;12.43;6.07;;;18.20;99.90;;;;;;4989892;28;20041;-87
2021/09/03 08:32:42;;;;;;;10.10;6.00;;;18.10;99.90;;;;;;4986879;28;20030;-87
2021/09/03 08:35:08;;;;;;;9.77;5.93;;;18.20;99.90;;;;;;4987037;28;20031;-87
2021/09/03 08:37:33;;;;;;;9.88;5.63;;;18.30;99.90;;;;;;4987063;28;20515;-87
2021/09/03 08:39:59;;;;;;;9.90;6.22;;;18.50;99.90;;;;;;4986302;28;20411;-87
2021/09/03 08:42:26;;;;;;;13.95;7.28;;;18.70;99.90;;;;;;4987143;28;20039;-88
2021/09/03 08:44:55;;;;;;;9.40;5.88;;;18.60;99.90;;;;;;4985596;28;20054;-87
2021/09/03 08:47:21;;;;;;;9.48;5.72;;;18.70;99.90;;;;;;4985384;28;20062;-87
2021/09/03 08:49:47;;;;;;;10.18;5.95;;;18.90;99.90;;;;;;4985124;28;20099;-87
2021/09/03 08:52:13;;;;;;;11.45;6.88;;;18.80;99.90;;;;;;4985007;28;20053;-87
2021/09/03 08:54:38;;;;;;;12.25;7.05;;;18.90;99.90;;;;;;4985958;28;20487;-87
2021/09/03 08:57:05;;;;;;;11.73;5.50;;;19.00;99.90;;;;;;4986611;28;20034;-87
2021/09/03 08:59:31;;;;;;;9.15;6.05;;;19.00;99.90;;;;;;4996882;28;20030;-86
2021/09/03 09:02:13;;;;;;;10.68;5.97;;;19.20;99.90;;;;;;5006256;28;20057;-88
2021/09/03 09:04:41;;;;;;;11.95;6.07;;;19.20;99.90;;;;;;5005440;28;20031;-88
2021/09/03 09:07:07;;;;;;;9.02;5.65;;;19.30;99.90;;;;;;4977876;28;20031;-87
2021/09/03 09:09:37;;;;;;;10.35;5.90;;;19.40;99.90;;;;;;4986193;28;20644;-89
2021/09/03 09:12:11;;;;;;;9.57;6.10;;;19.50;99.90;;;;;;4988341;28;20047;-88
2021/09/03 09:15:03;;;;;;;10.15;5.53;;;19.40;99.90;;;;;;4989526;28;20110;-88
2021/09/03 09:17:32;;;;;;;8.65;5.43;;;19.50;99.90;;;;;;4972414;28;20398;-89
2021/09/03 09:19:58;;;;;;;9.70;5.72;;;19.70;99.90;;;;;;4971910;28;20046;-88
2021/09/03 09:22:24;;;;;;;9.10;5.78;;;19.90;99.90;;;;;;4989132;28;20039;-89
2021/09/03 09:24:50;;;;;;;11.38;6.05;;;20.00;99.90;;;;;;4989399;28;20038;-88
2021/09/03 09:27:26;;;;;;;9.32;6.07;;;20.00;99.90;;;;;;4988948;28;20027;-88
2021/09/03 09:29:52;;;;;;;11.00;6.00;;;20.20;99.90;;;;;;4989131;28;20037;-88
2021/09/03 09:32:18;;;;;;;8.13;5.45;;;20.30;99.90;;;;;;4988059;28;20027;-88
2021/09/03 09:34:46;;;;;;;9.93;5.88;;;20.40;99.90;;;;;;4989211;28;20041;-88
2021/09/03 09:37:17;;;;;;;9.00;5.97;;;20.40;99.90;;;;;;4988144;28;20022;-88
2021/09/03 09:39:52;;;;;;;12.13;6.35;;;20.40;99.90;;;;;;4993101;28;20498;-88
2021/09/03 09:42:23;;;;;;;9.07;4.82;;;20.50;99.90;;;;;;5008665;28;20038;-89
2021/09/03 09:45:10;;;;;;;8.07;4.72;;;20.60;99.90;;;;;;5008575;28;20029;-89
2021/09/03 09:47:38;;;;;;;9.60;5.47;;;20.60;99.90;;;;;;5011897;28;20022;-87
2021/09/03 09:50:22;;;;;;;9.57;5.63;;;20.70;99.90;;;;;;5002968;28;20090;-88
2021/09/03 09:52:48;;;;;;;9.43;5.65;;;20.60;99.90;;;;;;5011532;28;20037;-88
2021/09/03 09:55:14;;;;;;;8.35;5.32;;;20.60;99.90;;;;;;5011193;28;20018;-88
2021/09/03 09:57:41;;;;;;;10.85;5.25;;;20.60;99.90;;;;;;5004448;28;20027;-88
2021/09/03 10:00:08;;;;;;;9.15;5.13;;;20.80;99.90;;;;;;4992155;28;20033;-88
2021/09/03 10:02:34;;;;;;;10.50;5.80;;;20.90;99.90;;;;;;4988652;28;20027;-88
2021/09/03 10:05:04;;;;;;;8.48;5.53;;;21.00;99.90;;;;;;4987841;28;20026;-88
2021/09/03 10:07:31;;;;;;;11.80;5.70;;;21.00;99.90;;;;;;4989045;28;20034;-87
2021/09/03 10:09:57;;;;;;;9.27;5.65;;;21.00;99.90;;;;;;4969256;28;20084;-88
2021/09/03 10:12:24;;;;;;;11.88;5.57;;;21.00;99.90;;;;;;4986353;28;20027;-88
2021/09/03 10:14:50;;;;;;;8.68;4.97;;;21.10;99.90;;;;;;4988428;28;20111;-88
2021/09/03 10:17:19;;;;;;;9.90;4.53;;;21.50;99.90;;;;;;4987023;28;20023;-88
2021/09/03 10:19:52;;;;;;;7.93;4.72;;;21.60;99.90;;;;;;4989111;28;20026;-88
2021/09/03 10:22:20;;;;;;;7.88;4.78;;;21.80;99.90;;;;;;4986905;28;20038;-88
2021/09/03 10:24:47;;;;;;;9.27;5.03;;;22.00;99.90;;;;;;4999780;28;20041;-88
2021/09/03 10:27:14;;;;;;;10.25;5.97;;;22.10;99.90;;;;;;5011143;28;20026;-88
2021/09/03 10:29:46;;;;;;;7.97;4.80;;;22.20;99.90;;;;;;5007879;28;20023;-89
2021/09/03 10:32:19;;;;;;;8.85;5.00;;;22.00;99.90;;;;;;5009388;28;20042;-88
2021/09/03 10:34:50;;;;;;;10.13;5.25;;;22.30;99.90;;;;;;4991203;28;20031;-88
2021/09/03 10:37:16;;;;;;;9.57;5.95;;;22.30;99.90;;;;;;4990482;28;20019;-88
2021/09/03 10:39:43;;;;;;;7.53;4.90;;;22.40;99.90;;;;;;4990090;28;20027;-88
2021/09/03 10:42:09;;;;;;;8.35;5.03;;;22.50;99.90;;;;;;4985167;28;20027;-88
2021/09/03 10:45:16;;;;;;;10.18;5.47;;;22.60;99.90;;;;;;4976236;28;20038;-88
2021/09/03 10:47:46;;;;;;;8.18;5.13;;;22.90;99.90;;;;;;4975676;28;20041;-88
2021/09/03 10:50:16;;;;;;;7.90;4.60;;;22.90;99.90;;;;;;4999329;28;20030;-88
2021/09/03 10:53:10;;;;;;;9.43;5.40;;;23.10;99.90;;;;;;5010358;28;20026;-88
2021/09/03 10:56:03;;;;;;;7.90;5.15;;;23.00;99.90;;;;;;5014239;28;20625;-88
2021/09/03 10:58:40;;;;;;;10.07;5.28;;;23.10;99.90;;;;;;5016446;28;20026;-88
2021/09/03 11:01:12;;;;;;;9.13;5.50;;;23.30;99.90;;;;;;4999115;28;20474;-88
2021/09/03 11:03:52;;;;;;;7.53;4.35;;;23.40;99.90;;;;;;4979760;28;20026;-88
2021/09/03 11:06:27;;;;;;;8.10;4.97;;;23.50;99.90;;;;;;4996732;28;20030;-87
2021/09/03 11:08:57;;;;;;;12.98;4.75;;;23.50;99.90;;;;;;5006915;28;20114;-88
2021/09/03 11:11:31;;;;;;;7.63;4.30;;;23.80;99.90;;;;;;5017657;28;20049;-87
2021/09/03 11:13:58;;;;;;;8.27;4.90;;;24.00;99.90;;;;;;5001205;28;20056;-88
2021/09/03 11:16:38;;;;;;;6.38;4.10;;;24.20;99.90;;;;;;5010442;28;20037;-88
2021/09/03 11:19:07;;;;;;;7.03;4.28;;;24.40;99.90;;;;;;4996758;28;20019;-88
2021/09/03 11:21:35;;;;;;;7.57;4.28;;;24.30;99.90;;;;;;4997763;28;20022;-88
2021/09/03 11:24:02;;;;;;;6.10;3.85;;;24.50;99.10;;;;;;4999134;28;20026;-88
2021/09/03 11:26:29;;;;;;;7.78;4.25;;;24.40;99.40;;;;;;5017568;28;20027;-88
2021/09/03 11:28:59;;;;;;;7.28;4.28;;;24.30;98.60;;;;;;5016897;28;20098;-88
2021/09/03 11:31:25;;;;;;;7.30;4.30;;;24.30;98.90;;;;;;5000526;28;20047;-87
2021/09/03 11:33:51;;;;;;;7.35;4.05;;;24.50;99.00;;;;;;5006800;28;20318;-88
2021/09/03 11:36:17;;;;;;;7.70;4.10;;;24.40;98.60;;;;;;4997081;28;20058;-88
2021/09/03 11:38:51;;;;;;;6.78;3.95;;;24.70;98.10;;;;;;4997509;28;20022;-88
2021/09/03 11:41:16;;;;;;;6.95;3.90;;;24.80;97.70;;;;;;4997577;28;20090;-88
2021/09/03 11:43:42;;;;;;;7.32;3.97;;;25.00;97.60;;;;;;4997776;28;20034;-88
2021/09/03 11:46:15;;;;;;;6.55;3.83;;;25.10;97.40;;;;;;4997247;28;20026;-88
2021/09/03 11:48:43;;;;;;;5.88;3.67;;;25.30;97.50;;;;;;4995945;28;20035;-88
2021/09/03 11:51:21;;;;;;;7.35;3.70;;;25.40;96.20;;;;;;4998891;28;20030;-88
2021/09/03 11:53:48;;;;;;;6.28;3.40;;;25.50;95.70;;;;;;4985986;28;20038;-88
2021/09/03 11:56:16;;;;;;;8.25;3.75;;;25.40;96.00;;;;;;4981536;28;20027;-88
2021/09/03 11:58:42;;;;;;;5.90;3.80;;;25.60;95.20;;;;;;4988505;28;20167;-88
2021/09/03 12:01:08;;;;;;;5.47;3.67;;;25.60;95.80;;;;;;4994278;28;20018;-88
2021/09/03 12:03:37;;;;;;;5.75;3.67;;;25.80;95.40;;;;;;4995271;28;20032;-87
2021/09/03 12:06:05;;;;;;;6.53;4.00;;;25.80;94.90;;;;;;4994856;28;20043;-87
2021/09/03 12:08:35;;;;;;;6.03;3.63;;;25.90;94.40;;;;;;4995329;28;20017;-88
2021/09/03 12:11:06;;;;;;;6.37;3.50;;;25.90;94.40;;;;;;5012058;28;20084;-88
2021/09/03 12:13:42;;;;;;;5.78;3.50;;;26.10;93.90;;;;;;5015449;28;20037;-88
2021/09/03 12:16:39;;;;;;;5.80;3.72;;;26.10;93.40;;;;;;5015877;28;20026;-88
2021/09/03 12:19:05;;;;;;;6.75;3.30;;;26.20;93.60;;;;;;5012128;28;20019;-88
2021/09/03 12:21:37;;;;;;;6.28;3.67;;;26.50;93.70;;;;;;4979678;28;20034;-87
2021/09/03 12:24:09;;;;;;;5.57;3.40;;;26.70;93.30;;;;;;4996724;28;20027;-87
2021/09/03 12:26:36;;;;;;;5.85;3.40;;;26.80;92.40;;;;;;5013434;28;20093;-87
2021/09/03 12:29:03;;;;;;;5.45;3.25;;;26.50;92.70;;;;;;5006233;28;20030;-87
2021/09/03 12:31:33;;;;;;;6.57;3.60;;;26.70;92.60;;;;;;4994018;28;20065;-87
2021/09/03 12:34:13;;;;;;;5.47;3.17;;;26.90;92.20;;;;;;4995612;28;20054;-87
2021/09/03 12:36:40;;;;;;;5.72;3.35;;;27.10;91.70;;;;;;5022497;23;20041;-89
2021/09/03 12:39:09;;;;;;;6.20;3.22;;;27.30;91.80;;;;;;5020006;28;20037;-89
2021/09/03 12:41:40;;;;;;;5.40;3.42;;;27.70;90.90;;;;;;5026061;28;20021;-88
2021/09/03 12:44:18;;;;;;;5.88;3.25;;;27.90;90.20;;;;;;5032737;28;20552;-90